logo
App data

Alone in the Dark: Illumination

A darkness has fallen over the town of Lorwich. Monstrous hordes emerge from beyond the realm of nightmares to sow chaos on the land. As one of four heroes, you must battle the minions of the old ones with the force of arms, and the power of illumination.
Store | Hub | SteamDB | Site
Developer: Pure FPS Publisher: Atari
Genre: Action, Adventure
Languages: English, French, Italian, German, Spanish
Tags: Action (31), Adventure (28), Horror (25), Co-op (20), Multiplayer (17), Shooter (17), Survival Horror (17), Illuminati (12), Lovecraftian (12), Third Person (9), Singleplayer (5)
Category: Single-player, Multi-player, Co-op, Steam Achievements, Steam Trading Cards, Steam Leaderboards
Release date: Jun 11, 2015
Price: $19.99
Score rank: 2% Userscore: 24% Old userscore: 22%
Owners: 0 .. 20,000
Followers: 3,626
Playtime total: 02:49 (average) 03:02 (median)

Steam Spy is still in beta, so expect major bugs.

Owners data:

Access restricted.

This feature is only available to users with special access rights. Sorry.

If you want to proceed, you need to register or log in first and then back Steam Spy on Patreon. Look for Indie or Pro pledge.

Don't forget to use the same email as on Steam Spy!

Audience in 2 weeks:

Access restricted.

This feature is only available to users with special access rights. Sorry.

If you want to proceed, you need to register or log in first and then back Steam Spy on Patreon. Look for Indie or Pro pledge.

Don't forget to use the same email as on Steam Spy!

Peak daily concurrent players:

CCU data courtesy of SteamDB. Used with permission.

Hourly concurrent players:

Daily Twitch stats:

Hourly Twitch stats:

YouTube:

The views data is based on top 50 videos uploaded last week. Actual number of views might be more than the number shown.

The displayed number of videos uploaded yesterday is limited to 50, so if there were more videos uploaded, the number will still show 50.

If the game has commonly used word as its name (like "FEAR" or "Volume") its number of Youtube views might be wrong.

Games similar to this one:

# Game Release date
Price
Score rank
(Userscore / Metascore)
Owners
Players
Playtime (Median)
1 Umihara Kawase Nov 2, 2015 $9.9999% (98%)0 .. 20,0000%00:00 (00:00)
2 Hide & Spook: The Haunted Alchemist Oct 28, 2016 FreeN/A (N/A)0 .. 20,0000%00:00 (00:00)
3 The Dishwasher: Vampire Smile May 12, 2017 $9.9995% (96%)0 .. 20,0000%00:00 (00:00)
4 Bio Menace Aug 3, 1993 N/AN/A (N/A)0 .. 20,0000%00:00 (00:00)
5 JUJU Dec 10, 2014 $19.9993% (95%/65%)0 .. 20,0000%00:00 (00:00)
6 A-10 VR Apr 5, 2016 $4.9993% (95%)0 .. 20,0000%00:00 (00:00)
7 Requiem: Avenging Angel Mar 31, 1999 $9.99N/A (N/A)0 .. 20,0000%00:00 (00:00)
8 Aaero Apr 11, 2017 $14.9990% (94%)0 .. 20,0000%00:00 (00:00)
9 Charlie Murder May 12, 2017 $9.9987% (93%)0 .. 20,0000%00:00 (00:00)
10 Immortal Redneck Apr 25, 2017 $19.9587% (93%/70%)20,000 .. 50,0003.45%00:39 (00:13)
11 NotCoD May 19, 2016 $4.9987% (93%)0 .. 20,0002.94%01:19 (00:26)
12 Guns, Gore & Cannoli Apr 30, 2015 $9.9987% (93%/74%)50,000 .. 100,0001.96%00:04 (00:01)
13 A Rose in the Twilight / ロゼと黄昏の古城 Apr 11, 2017 $19.9983% (92%)0 .. 20,0000%00:00 (00:00)
14 Space Ace Apr 29, 1984 $9.9983% (92%)0 .. 20,0000%00:00 (00:00)
15 Disney G-Force Jul 21, 2009 $19.9980% (91%/61%)0 .. 20,0000%00:00 (00:00)
16 Terminal Velocity May 1, 1995 $6.99N/A (N/A)20,000 .. 50,0000%00:00 (00:00)
17 Hyphen Feb 12, 2015 $3.99N/A (N/A)0 .. 20,0000%00:00 (00:00)
18 A Lenda do Herói - O Herói desta Canção Apr 24, 2017 $15.9977% (90%)20,000 .. 50,00022.22%62:05 (41:23)
19 Mayhem Triple Sep 4, 2015 $4.99N/A (N/A)0 .. 20,0000%00:00 (00:00)
20 Shovel Knight: Specter of Torment Apr 5, 2017 $9.9977% (90%)0 .. 20,0000%00:00 (00:00)
21 THE WALL 墙 Jun 8, 2017 $1.9973% (89%)0 .. 20,0000%00:00 (00:00)
22 Xmas Shooting - Scramble!! Dec 16, 2016 $4.9973% (89%)0 .. 20,0006.67%02:53 (00:57)
23 Twisted Arrow Mar 28, 2017 $19.9971% (88%)0 .. 20,0000%00:00 (00:00)
24 Word Rescue May 1, 1992 $4.99N/A (N/A)0 .. 20,0000%00:00 (00:00)
25 Mystik Belle May 15, 2015 $14.9971% (88%)0 .. 20,0000%00:00 (00:00)
26 Inbound Jul 5, 2016 $2.99N/A (N/A)0 .. 20,0000%00:00 (00:00)
27 Neighborhorde Jun 5, 2017 $4.99N/A (N/A)0 .. 20,0003.57%00:01 (00:00)
28 SPINGUN Nov 11, 2016 $1.9968% (87%)0 .. 20,0002.86%03:41 (01:13)
29 Rocket Fist May 12, 2016 $4.9965% (86%)0 .. 20,00011.11%03:54 (02:36)
30 Skyhook May 17, 2016 $4.9962% (85%)0 .. 20,0000%00:00 (00:00)
31 Wicce May 5, 2016 $4.9962% (85%)0 .. 20,0000%00:00 (00:00)
32 Vintage Year Jan 2, 2015 $2.9962% (85%)20,000 .. 50,0000%00:00 (00:00)
33 Disney's Chicken Little Oct 20, 2005 $9.9960% (84%)0 .. 20,0000%00:00 (00:00)
34 Rosenkreuzstilette Feb 2, 2017 $9.9960% (84%)0 .. 20,0000%00:00 (00:00)
35 Skylar & Plux: Adventure On Clover Island May 19, 2017 $14.9960% (84%)0 .. 20,0000%00:00 (00:00)
36 I Am The Hero Jan 16, 2017 $9.9960% (84%)20,000 .. 50,0003.85%01:52 (00:37)
37 Spaceman Sparkles 3 Mar 21, 2016 $4.99N/A (N/A)0 .. 20,0000%00:00 (00:00)
38 Suicide Guy Jul 14, 2017 $4.9960% (84%)0 .. 20,0000%00:00 (00:00)
39 Lightblade VR May 31, 2016 $3.9960% (84%)20,000 .. 50,0004%00:16 (00:05)
40 Stargunner Nov 19, 1996 Free60% (84%)0 .. 20,0000%00:00 (00:00)
41 2 Ninjas 1 Cup Feb 3, 2017 $0.9960% (84%)0 .. 20,0002.78%00:29 (00:09)
42 Nongünz May 19, 2017 $6.9960% (84%)100,000 .. 200,0000.79%04:10 (02:46)
43 Isbarah Feb 25, 2015 $13.99N/A (N/A)20,000 .. 50,0000%00:00 (00:00)
44 NeonXSZ Feb 22, 2016 $14.9960% (84%)0 .. 20,0000%00:00 (00:00)
45 Nandeyanen!? - The 1st Sûtra Jul 22, 2015 $1.99N/A (N/A)0 .. 20,0000%00:00 (00:00)
46 Scribble Ships Mar 29, 2017 $3.99N/A (N/A)0 .. 20,0000%00:00 (00:00)
47 Fighties Jul 13, 2015 $4.9957% (83%)0 .. 20,0000%00:00 (00:00)
48 Dimensional Dec 14, 2016 $4.99N/A (N/A)0 .. 20,0000%00:00 (00:00)
49 forma.8 Feb 23, 2017 $9.99N/A (N/A)0 .. 20,0000%00:00 (00:00)
50 Airport Madness: World Edition May 28, 2015 $9.9951% (80%)20,000 .. 50,0004.08%08:08 (03:57)
51 Spaceman Sparkles 2 May 20, 2015 $2.9951% (80%)0 .. 20,0003.03%04:03 (01:21)
52 Caladrius Blaze Jan 12, 2017 $24.9948% (79%)0 .. 20,0000%00:00 (00:00)
53 Disney Infinity 3.0: Gold Edition Dec 9, 2016 $29.9946% (78%)0 .. 20,0000%00:00 (00:00)
54 Gnomes Vs. Fairies: Greckel's Quest Jul 1, 2016 $9.9946% (78%)0 .. 20,0000%00:00 (00:00)
55 Xenocide Aug 28, 2015 $2.99N/A (N/A)0 .. 20,0000%00:00 (00:00)
56 Quick Draw Jan 10, 2017 $9.99N/A (N/A)0 .. 20,0000%00:00 (00:00)
57 Vertical Drop Heroes HD Jul 25, 2014 $6.9945% (77%/70%)200,000 .. 500,0000.26%00:51 (00:17)
58 Zombeer Jan 30, 2015 $4.9943% (76%/32%)0 .. 20,0000%00:00 (00:00)
59 Mighty Gunvolt Sep 29, 2015 $4.9943% (76%)20,000 .. 50,0000%00:00 (00:00)
60 Flinthook Apr 18, 2017 $14.9943% (76%/80%)50,000 .. 100,0000%00:00 (00:00)
61 Castle Torgeath: Descent into Darkness Jan 22, 2016 $7.99N/A (N/A)0 .. 20,0000%00:00 (00:00)
62 Putrefaction 2: Void Walker May 29, 2017 $4.9941% (75%)0 .. 20,0000%00:00 (00:00)
63 Kraven Manor Sep 26, 2014 $5.9939% (74%/58%)100,000 .. 200,0000%00:00 (00:00)
64 TankZone Battle Sep 21, 2015 $8.9939% (74%)0 .. 20,0000%00:00 (00:00)
65 Adventure Time: Magic Man's Head Games Apr 5, 2016 $4.9939% (74%)0 .. 20,0000%00:00 (00:00)
66 Planet of Mubu Apr 1, 2017 $0.59N/A (N/A)20,000 .. 50,0000%00:00 (00:00)
67 Aeon May 22, 2017 $19.9935% (72%)0 .. 20,0000%00:00 (00:00)
68 Dungeons & Darkness Sep 29, 2016 $9.99N/A (N/A)0 .. 20,0000%00:00 (00:00)
69 Caravan Sep 30, 2016 $9.9935% (72%)20,000 .. 50,00021.09%04:28 (03:02)
70 Kill to Collect Apr 6, 2016 $9.9935% (72%/57%)0 .. 20,0000%00:00 (00:00)
71 EPOCH Jun 5, 2014 $9.99N/A (N/A)0 .. 20,0000%00:00 (00:00)
72 Far Space VR May 10, 2017 $1.9934% (71%)20,000 .. 50,0003.23%02:28 (01:20)
73 ABRACA - Imagic Games Mar 31, 2016 $14.99N/A (N/A)0 .. 20,0000%00:00 (00:00)
74 Westboro Apr 27, 2017 $17.9932% (70%)0 .. 20,0000%00:00 (00:00)
75 Arctic Adventure Oct 9, 1991 N/AN/A (N/A)0 .. 20,0000%00:00 (00:00)
76 Deathtrap Dungeon Jun 25, 1998 $6.9932% (70%)0 .. 20,0000%00:00 (00:00)
77 Xenus 2. White gold. Nov 23, 2016 $14.9932% (70%)0 .. 20,0000%00:00 (00:00)
78 V ARRR Jun 10, 2016 $9.9932% (70%)0 .. 20,0000%00:00 (00:00)
79 Tank Brawl Apr 20, 2016 $4.99N/A (N/A)0 .. 20,0000%00:00 (00:00)
80 The Girl and the Robot Aug 17, 2016 $9.99N/A (N/A)0 .. 20,0000%00:00 (00:00)
81 The Next World Mar 7, 2016 $12.9931% (69%)0 .. 20,0004.76%02:08 (00:42)
82 Wooden Sen'SeY Dec 5, 2013 $9.9929% (68%)20,000 .. 50,0000%00:00 (00:00)
83 Ruckus Ridge VR Party Apr 5, 2016 $9.99N/A (N/A)0 .. 20,0000%00:00 (00:00)
84 Cavern of Time Feb 10, 2017 $3.99N/A (N/A)0 .. 20,0000%00:00 (00:00)
85 Escape From Nazi Labs Nov 8, 2016 $4.99N/A (N/A)20,000 .. 50,0004.4%03:44 (04:17)
86 Legends of the Universe - StarCore Jul 25, 2016 $3.99N/A (N/A)0 .. 20,0000%00:00 (00:00)
87 Epigenesis Aug 1, 2014 Free26% (66%)200,000 .. 500,0000.31%00:01 (00:00)
88 Phantaruk Aug 16, 2016 $4.9926% (66%/53%)20,000 .. 50,0002.63%00:34 (00:22)
89 Exile's End Aug 31, 2015 $9.99N/A (N/A)0 .. 20,0000%00:00 (00:00)
90 King Lucas Dec 1, 2016 $4.9926% (66%)20,000 .. 50,0000%00:00 (00:00)
91 Redux: Dark Matters Dec 12, 2014 $12.99N/A (N/A/61%)0 .. 20,0000%00:00 (00:00)
92 METAGAL May 23, 2016 $3.9925% (65%)0 .. 20,0000%00:00 (00:00)
93 BIOS Dec 13, 2016 $14.9925% (65%)0 .. 20,0000%00:00 (00:00)
94 Masked Forces Nov 23, 2016 $0.9925% (65%)20,000 .. 50,0007.5%02:39 (02:07)
95 Bladestar Jan 15, 2016 $9.99N/A (N/A)0 .. 20,0000%00:00 (00:00)
96 Marble Mountain Apr 5, 2016 $9.99N/A (N/A)0 .. 20,0000%00:00 (00:00)
97 JET HERO Feb 17, 2017 $0.99N/A (N/A)0 .. 20,0000%00:00 (00:00)
98 Crazy Catman Jun 1, 2017 $0.9924% (64%)20,000 .. 50,0000%00:00 (00:00)
99 Predator Simulator May 11, 2015 $2.9923% (63%)0 .. 20,0000%00:00 (00:00)
100 Zombie Camp: Last Survivor Apr 17, 2015 $1.99N/A (N/A)0 .. 20,0000%00:00 (00:00)
101 Nightmare on Azathoth Oct 30, 2015 $0.99N/A (N/A)0 .. 20,0000%00:00 (00:00)
102 Alpha Zylon Dec 19, 2007 $4.9922% (62%)20,000 .. 50,0000%00:00 (00:00)
103 Disney Alice in Wonderland Mar 2, 2010 $19.9920% (61%/63%)0 .. 20,0000%00:00 (00:00)
104 Momento Temporis: Light from the Deep Oct 27, 2016 $4.99N/A (N/A)0 .. 20,0000%00:00 (00:00)
105 The Ruins: VR Escape the Room Apr 13, 2017 $5.99N/A (N/A)0 .. 20,0005.56%02:05 (00:41)
106 Majestic Nights Oct 30, 2014 $4.9919% (60%/32%)0 .. 20,0000%00:00 (00:00)
107 I, Gladiator Apr 7, 2015 $7.9919% (60%)0 .. 20,0000%00:00 (00:00)
108 Q*bert: Rebooted Jul 1, 2014 $4.9919% (60%)0 .. 20,0000%00:00 (00:00)
109 Pane In The Glass Aug 8, 2016 $4.99N/A (N/A)0 .. 20,0000%00:00 (00:00)
110 Silver Bullet: Prometheus Apr 8, 2016 $4.9916% (57%)0 .. 20,0003.85%00:01 (00:00)
111 QUALIA 3: Multi Agent Apr 18, 2014 $4.99N/A (N/A)0 .. 20,0000%00:00 (00:00)
112 The Curse of Nordic Cove Apr 23, 2015 $0.99N/A (N/A)0 .. 20,0000%00:00 (00:00)
113 Redneck Rampage Apr 30, 1997 $9.99N/A (N/A)0 .. 20,0000%00:00 (00:00)
114 Princess Kaguya: Legend of the Moon Warrior Aug 4, 2015 $10.99N/A (N/A)0 .. 20,0004.17%02:18 (01:34)
115 Fossil Echo Jul 8, 2016 $9.9914% (54%/61%)0 .. 20,0000%00:00 (00:00)
116 Police Quest: SWAT Sep 30, 1995 $5.99N/A (N/A)0 .. 20,0004%00:03 (00:01)
117 Plancon: Space Conflict Aug 8, 2016 $6.9911% (50%)20,000 .. 50,0002.04%01:32 (01:00)
118 The East New World Apr 26, 2016 $4.99N/A (N/A)0 .. 20,0000%00:00 (00:00)
119 Scooby Doo! & Looney Tunes Cartoon Universe: Adventure Jul 16, 2014 $19.99N/A (N/A)0 .. 20,0000%00:00 (00:00)
120 Project Root May 1, 2014 $9.9910% (49%)20,000 .. 50,0000%00:00 (00:00)
121 Fabula Mortis Oct 27, 2014 $7.9910% (48%)0 .. 20,0000%00:00 (00:00)
122 Super Dungeon Bros Nov 1, 2016 $19.999% (46%)0 .. 20,0000%00:00 (00:00)
123 Dusk 12 Aug 28, 2009 $3.998% (45%)50,000 .. 100,0000%00:00 (00:00)
124 Infinium Strike Jul 14, 2016 $9.998% (45%)0 .. 20,0000%00:00 (00:00)
125 Red Johnson's Chronicles - 1+2 - Steam Special Edition Sep 5, 2014 $9.99N/A (N/A)0 .. 20,0000%00:00 (00:00)
126 Grimm: Dark Legacy Nov 2, 2016 $14.998% (45%)0 .. 20,0000%00:00 (00:00)
127 Greed: Black Border Jan 13, 2010 $4.998% (44%)100,000 .. 200,0000%00:00 (00:00)
128 iStorm Mar 16, 2017 Free7% (43%)0 .. 20,0000%00:00 (00:00)
129 Blinding Dark Aug 12, 2014 $9.997% (42%)20,000 .. 50,0000%00:00 (00:00)
130 Polterheist Feb 21, 2017 $4.996% (40%)0 .. 20,00010.53%01:00 (00:39)
131 Crouching Pony Hidden Dragon Jul 11, 2014 $9.996% (40%)20,000 .. 50,0000%00:00 (00:00)
132 Beyond Space Remastered Edition Jun 16, 2014 $4.996% (39%)20,000 .. 50,0000%00:00 (00:00)
133 Raiden Legacy - Steam Edition Dec 10, 2015 $9.996% (39%)0 .. 20,0000%00:00 (00:00)
134 CDF Ghostship Jun 26, 2015 $9.994% (33%)0 .. 20,0000%00:00 (00:00)
135 Hush Jul 29, 2015 $9.99N/A (N/A)0 .. 20,0002.33%04:32 (01:30)
136 NightZ Feb 14, 2017 $0.993% (28%)20,000 .. 50,0000%00:00 (00:00)
137 Masterspace Jun 15, 2015 $7.993% (27%)0 .. 20,0000%00:00 (00:00)
138 Xenophage: Alien Bloodsport Dec 29, 1995 N/AN/A (N/A)20,000 .. 50,0000%00:00 (00:00)
139 Battle For The Sun Jul 22, 2015 $4.991% (15%)0 .. 20,0000%00:00 (00:00)
140 Iron Soul Feb 26, 2014 $4.991% (5%)0 .. 20,0000%00:00 (00:00)

Owners of this game also own:

Access restricted.

This feature is only available to users with special access rights. Sorry.

If you want to proceed, you need to register or log in first and then back Steam Spy on Patreon. Look for Indie or Pro pledge.

Don't forget to use the same email as on Steam Spy!

Playtime distribution:

Access restricted.

This feature is only available to users with special access rights. Sorry.

If you want to proceed, you need to register or log in first and then back Steam Spy on Patreon. Look for Indie or Pro pledge.

Don't forget to use the same email as on Steam Spy!

Playtime (2 weeks):

Access restricted.

This feature is only available to users with special access rights. Sorry.

If you want to proceed, you need to register or log in first and then back Steam Spy on Patreon. Look for Indie or Pro pledge.

Don't forget to use the same email as on Steam Spy!

User reviews:

Login required.

Please register or log in to see this information.